sensor_id;sensor_type;location;lat;lon;timestamp;temperature;humidity
44627;DHT22;30333;52.192;8.834;2022-09-09T00:00:15;16.20;99.90
44627;DHT22;30333;52.192;8.834;2022-09-09T00:02:49;15.30;99.90
44627;DHT22;30333;52.192;8.834;2022-09-09T00:05:27;15.30;99.90
44627;DHT22;30333;52.192;8.834;2022-09-09T00:07:58;15.30;99.90
44627;DHT22;30333;52.192;8.834;2022-09-09T00:10:29;15.30;99.90
44627;DHT22;30333;52.192;8.834;2022-09-09T00:13:12;15.30;99.90
44627;DHT22;30333;52.192;8.834;2022-09-09T00:15:49;15.40;99.90
44627;DHT22;30333;52.192;8.834;2022-09-09T00:18:24;15.30;99.90
44627;DHT22;30333;52.192;8.834;2022-09-09T00:20:56;15.30;99.90
44627;DHT22;30333;52.192;8.834;2022-09-09T00:23:28;17.40;99.90
44627;DHT22;30333;52.192;8.834;2022-09-09T00:26:02;15.30;99.90
44627;DHT22;30333;52.192;8.834;2022-09-09T00:28:36;15.30;99.90
44627;DHT22;30333;52.192;8.834;2022-09-09T00:31:12;15.40;99.90
44627;DHT22;30333;52.192;8.834;2022-09-09T00:36:12;15.40;99.90
44627;DHT22;30333;52.192;8.834;2022-09-09T00:38:43;17.10;99.90
44627;DHT22;30333;52.192;8.834;2022-09-09T00:41:14;15.50;99.90
44627;DHT22;30333;52.192;8.834;2022-09-09T00:43:53;15.50;99.90
44627;DHT22;30333;52.192;8.834;2022-09-09T00:49:18;15.50;99.90
44627;DHT22;30333;52.192;8.834;2022-09-09T00:51:50;15.50;99.90
44627;DHT22;30333;52.192;8.834;2022-09-09T00:54:28;15.40;99.90
44627;DHT22;30333;52.192;8.834;2022-09-09T00:57:07;15.40;99.90
44627;DHT22;30333;52.192;8.834;2022-09-09T00:59:40;15.50;99.90
44627;DHT22;30333;52.192;8.834;2022-09-09T01:02:17;15.40;99.90
44627;DHT22;30333;52.192;8.834;2022-09-09T01:04:48;15.50;99.90
44627;DHT22;30333;52.192;8.834;2022-09-09T01:07:17;15.50;99.90
44627;DHT22;30333;52.192;8.834;2022-09-09T01:09:52;15.60;99.90
44627;DHT22;30333;52.192;8.834;2022-09-09T01:12:28;15.60;99.90
44627;DHT22;30333;52.192;8.834;2022-09-09T01:15:04;15.50;99.90
44627;DHT22;30333;52.192;8.834;2022-09-09T01:17:44;15.60;99.90
44627;DHT22;30333;52.192;8.834;2022-09-09T01:20:15;15.50;99.90
44627;DHT22;30333;52.192;8.834;2022-09-09T01:22:50;15.50;99.90
44627;DHT22;30333;52.192;8.834;2022-09-09T01:25:28;15.50;99.90
44627;DHT22;30333;52.192;8.834;2022-09-09T01:27:59;15.50;99.90
44627;DHT22;30333;52.192;8.834;2022-09-09T01:30:28;15.50;99.90
44627;DHT22;30333;52.192;8.834;2022-09-09T01:32:56;15.40;99.90
44627;DHT22;30333;52.192;8.834;2022-09-09T01:35:40;15.40;99.90
44627;DHT22;30333;52.192;8.834;2022-09-09T01:38:10;15.40;99.90
44627;DHT22;30333;52.192;8.834;2022-09-09T01:40:38;15.40;99.90
44627;DHT22;30333;52.192;8.834;2022-09-09T01:43:06;15.40;99.90
44627;DHT22;30333;52.192;8.834;2022-09-09T01:45:34;15.40;99.90
44627;DHT22;30333;52.192;8.834;2022-09-09T01:48:01;15.40;99.90
44627;DHT22;30333;52.192;8.834;2022-09-09T01:50:29;15.30;99.90
44627;DHT22;30333;52.192;8.834;2022-09-09T01:52:58;15.40;99.90
44627;DHT22;30333;52.192;8.834;2022-09-09T01:55:29;15.40;99.90
44627;DHT22;30333;52.192;8.834;2022-09-09T01:58:06;15.40;99.90
44627;DHT22;30333;52.192;8.834;2022-09-09T02:00:38;15.40;99.90
44627;DHT22;30333;52.192;8.834;2022-09-09T02:03:14;15.50;99.90
44627;DHT22;30333;52.192;8.834;2022-09-09T02:05:48;15.40;99.90
44627;DHT22;30333;52.192;8.834;2022-09-09T02:08:21;15.50;99.90
44627;DHT22;30333;52.192;8.834;2022-09-09T02:10:54;16.40;99.90
44627;DHT22;30333;52.192;8.834;2022-09-09T02:13:25;15.50;99.90
44627;DHT22;30333;52.192;8.834;2022-09-09T02:15:56;15.40;99.90
44627;DHT22;30333;52.192;8.834;2022-09-09T02:18:28;15.50;99.90
44627;DHT22;30333;52.192;8.834;2022-09-09T02:20:58;15.40;99.90
44627;DHT22;30333;52.192;8.834;2022-09-09T02:23:26;15.40;99.90
44627;DHT22;30333;52.192;8.834;2022-09-09T02:25:55;15.40;99.90
44627;DHT22;30333;52.192;8.834;2022-09-09T02:28:25;15.40;99.90
44627;DHT22;30333;52.192;8.834;2022-09-09T02:30:54;15.50;99.90
44627;DHT22;30333;52.192;8.834;2022-09-09T02:33:25;15.60;99.90
44627;DHT22;30333;52.192;8.834;2022-09-09T02:35:54;15.60;99.90
44627;DHT22;30333;52.192;8.834;2022-09-09T02:38:29;15.70;99.90
44627;DHT22;30333;52.192;8.834;2022-09-09T02:40:58;15.70;99.90
44627;DHT22;30333;52.192;8.834;2022-09-09T02:43:31;15.80;99.90
44627;DHT22;30333;52.192;8.834;2022-09-09T02:46:04;15.80;99.90
44627;DHT22;30333;52.192;8.834;2022-09-09T02:48:40;15.70;99.90
44627;DHT22;30333;52.192;8.834;2022-09-09T02:51:15;15.80;99.90
44627;DHT22;30333;52.192;8.834;2022-09-09T02:53:49;15.80;99.90
44627;DHT22;30333;52.192;8.834;2022-09-09T02:56:23;15.80;99.90
44627;DHT22;30333;52.192;8.834;2022-09-09T02:58:53;15.90;99.90
44627;DHT22;30333;52.192;8.834;2022-09-09T03:01:21;15.80;99.90
44627;DHT22;30333;52.192;8.834;2022-09-09T03:03:48;15.90;99.90
44627;DHT22;30333;52.192;8.834;2022-09-09T03:06:15;15.90;99.90
44627;DHT22;30333;52.192;8.834;2022-09-09T03:08:43;15.90;99.90
44627;DHT22;30333;52.192;8.834;2022-09-09T03:11:15;15.90;99.90
44627;DHT22;30333;52.192;8.834;2022-09-09T03:13:42;15.90;99.90
44627;DHT22;30333;52.192;8.834;2022-09-09T03:16:11;15.90;99.90
44627;DHT22;30333;52.192;8.834;2022-09-09T03:18:38;15.90;99.90
44627;DHT22;30333;52.192;8.834;2022-09-09T03:21:05;15.90;99.90
44627;DHT22;30333;52.192;8.834;2022-09-09T03:23:33;15.90;99.90
44627;DHT22;30333;52.192;8.834;2022-09-09T03:26:00;16.00;99.90
44627;DHT22;30333;52.192;8.834;2022-09-09T03:28:27;16.00;99.90
44627;DHT22;30333;52.192;8.834;2022-09-09T03:30:59;15.90;99.90
44627;DHT22;30333;52.192;8.834;2022-09-09T03:33:27;15.80;99.90
44627;DHT22;30333;52.192;8.834;2022-09-09T03:35:56;15.80;99.90
44627;DHT22;30333;52.192;8.834;2022-09-09T03:38:23;15.80;99.90
44627;DHT22;30333;52.192;8.834;2022-09-09T03:40:50;15.80;99.90
44627;DHT22;30333;52.192;8.834;2022-09-09T03:43:17;15.70;99.90
44627;DHT22;30333;52.192;8.834;2022-09-09T03:45:45;15.70;99.90
44627;DHT22;30333;52.192;8.834;2022-09-09T03:48:14;15.80;99.90
44627;DHT22;30333;52.192;8.834;2022-09-09T03:50:45;15.80;99.90
44627;DHT22;30333;52.192;8.834;2022-09-09T03:53:13;15.80;99.90
44627;DHT22;30333;52.192;8.834;2022-09-09T03:55:43;15.90;99.90
44627;DHT22;30333;52.192;8.834;2022-09-09T03:58:10;15.80;99.90
44627;DHT22;30333;52.192;8.834;2022-09-09T04:00:37;15.90;99.90
44627;DHT22;30333;52.192;8.834;2022-09-09T04:03:09;15.80;99.90
44627;DHT22;30333;52.192;8.834;2022-09-09T04:05:36;15.80;99.90
44627;DHT22;30333;52.192;8.834;2022-09-09T04:08:07;15.80;99.90
44627;DHT22;30333;52.192;8.834;2022-09-09T04:10:35;15.80;99.90
44627;DHT22;30333;52.192;8.834;2022-09-09T04:13:03;15.90;99.90
44627;DHT22;30333;52.192;8.834;2022-09-09T04:15:31;15.90;99.90
44627;DHT22;30333;52.192;8.834;2022-09-09T04:17:58;15.80;99.90
44627;DHT22;30333;52.192;8.834;2022-09-09T04:20:25;15.80;99.90
44627;DHT22;30333;52.192;8.834;2022-09-09T04:22:51;15.80;99.90
44627;DHT22;30333;52.192;8.834;2022-09-09T04:25:20;15.90;99.90
44627;DHT22;30333;52.192;8.834;2022-09-09T04:27:46;15.90;99.90
44627;DHT22;30333;52.192;8.834;2022-09-09T04:30:14;16.00;99.90
44627;DHT22;30333;52.192;8.834;2022-09-09T04:32:40;16.00;99.90
44627;DHT22;30333;52.192;8.834;2022-09-09T04:35:07;16.00;99.90
44627;DHT22;30333;52.192;8.834;2022-09-09T04:37:34;16.00;99.90
44627;DHT22;30333;52.192;8.834;2022-09-09T04:40:01;16.10;99.90
44627;DHT22;30333;52.192;8.834;2022-09-09T04:42:30;16.00;99.90
44627;DHT22;30333;52.192;8.834;2022-09-09T04:44:56;16.00;99.90
44627;DHT22;30333;52.192;8.834;2022-09-09T04:47:23;16.10;99.90
44627;DHT22;30333;52.192;8.834;2022-09-09T04:49:50;16.10;99.90
44627;DHT22;30333;52.192;8.834;2022-09-09T04:52:18;16.10;99.90
44627;DHT22;30333;52.192;8.834;2022-09-09T04:54:45;16.10;99.90
44627;DHT22;30333;52.192;8.834;2022-09-09T04:57:12;15.90;99.90
44627;DHT22;30333;52.192;8.834;2022-09-09T04:59:45;15.90;99.90
44627;DHT22;30333;52.192;8.834;2022-09-09T05:02:12;16.00;99.90
44627;DHT22;30333;52.192;8.834;2022-09-09T05:04:39;16.00;99.90
44627;DHT22;30333;52.192;8.834;2022-09-09T05:07:06;16.00;99.90
44627;DHT22;30333;52.192;8.834;2022-09-09T05:09:33;16.00;99.90
44627;DHT22;30333;52.192;8.834;2022-09-09T05:12:00;16.10;99.90
44627;DHT22;30333;52.192;8.834;2022-09-09T05:14:27;16.10;99.90
44627;DHT22;30333;52.192;8.834;2022-09-09T05:16:55;16.10;99.90
44627;DHT22;30333;52.192;8.834;2022-09-09T05:19:22;16.10;99.90
44627;DHT22;30333;52.192;8.834;2022-09-09T05:21:49;16.10;99.90
44627;DHT22;30333;52.192;8.834;2022-09-09T05:24:17;16.10;99.90
44627;DHT22;30333;52.192;8.834;2022-09-09T05:26:43;16.10;99.90
44627;DHT22;30333;52.192;8.834;2022-09-09T05:29:10;16.10;99.90
44627;DHT22;30333;52.192;8.834;2022-09-09T05:31:37;16.20;99.90
44627;DHT22;30333;52.192;8.834;2022-09-09T05:34:06;16.10;99.90
44627;DHT22;30333;52.192;8.834;2022-09-09T05:36:33;16.40;99.90
44627;DHT22;30333;52.192;8.834;2022-09-09T05:39:00;16.10;99.90
44627;DHT22;30333;52.192;8.834;2022-09-09T05:41:27;16.10;99.90
44627;DHT22;30333;52.192;8.834;2022-09-09T05:43:55;16.00;99.90
44627;DHT22;30333;52.192;8.834;2022-09-09T05:46:23;16.00;99.90
44627;DHT22;30333;52.192;8.834;2022-09-09T05:48:52;16.10;99.90
44627;DHT22;30333;52.192;8.834;2022-09-09T05:51:23;16.10;99.90
44627;DHT22;30333;52.192;8.834;2022-09-09T05:53:50;16.10;99.90
44627;DHT22;30333;52.192;8.834;2022-09-09T05:56:19;16.00;99.90
44627;DHT22;30333;52.192;8.834;2022-09-09T05:58:46;16.10;99.90
44627;DHT22;30333;52.192;8.834;2022-09-09T06:01:17;16.10;99.90
44627;DHT22;30333;52.192;8.834;2022-09-09T06:03:45;16.10;99.90
44627;DHT22;30333;52.192;8.834;2022-09-09T06:06:14;16.10;99.90
44627;DHT22;30333;52.192;8.834;2022-09-09T06:08:44;16.10;99.90
44627;DHT22;30333;52.192;8.834;2022-09-09T06:11:13;16.10;99.90
44627;DHT22;30333;52.192;8.834;2022-09-09T06:13:41;16.10;99.90
44627;DHT22;30333;52.192;8.834;2022-09-09T06:16:08;16.20;99.90
44627;DHT22;30333;52.192;8.834;2022-09-09T06:18:35;16.30;99.90
44627;DHT22;30333;52.192;8.834;2022-09-09T06:21:05;16.40;99.90
44627;DHT22;30333;52.192;8.834;2022-09-09T06:23:33;16.40;99.90
44627;DHT22;30333;52.192;8.834;2022-09-09T06:26:07;16.50;99.90
44627;DHT22;30333;52.192;8.834;2022-09-09T06:28:36;16.50;99.90
44627;DHT22;30333;52.192;8.834;2022-09-09T06:31:05;16.50;99.90
44627;DHT22;30333;52.192;8.834;2022-09-09T06:33:34;16.60;99.90
44627;DHT22;30333;52.192;8.834;2022-09-09T06:36:07;16.60;99.90
44627;DHT22;30333;52.192;8.834;2022-09-09T06:38:36;16.60;99.90
44627;DHT22;30333;52.192;8.834;2022-09-09T06:41:05;16.50;99.90
44627;DHT22;30333;52.192;8.834;2022-09-09T06:43:32;16.60;99.90
44627;DHT22;30333;52.192;8.834;2022-09-09T06:46:00;16.60;99.90
44627;DHT22;30333;52.192;8.834;2022-09-09T06:48:27;16.60;99.90
44627;DHT22;30333;52.192;8.834;2022-09-09T06:51:02;16.80;99.90
44627;DHT22;30333;52.192;8.834;2022-09-09T06:53:29;16.80;99.90
44627;DHT22;30333;52.192;8.834;2022-09-09T06:55:56;16.90;99.90
44627;DHT22;30333;52.192;8.834;2022-09-09T06:58:24;16.90;99.90
44627;DHT22;30333;52.192;8.834;2022-09-09T07:00:51;17.00;99.90
44627;DHT22;30333;52.192;8.834;2022-09-09T07:03:18;17.10;99.90
44627;DHT22;30333;52.192;8.834;2022-09-09T07:05:53;17.20;99.90
44627;DHT22;30333;52.192;8.834;2022-09-09T07:08:20;17.30;99.90
44627;DHT22;30333;52.192;8.834;2022-09-09T07:10:47;17.30;99.90
44627;DHT22;30333;52.192;8.834;2022-09-09T07:13:14;17.40;99.90
44627;DHT22;30333;52.192;8.834;2022-09-09T07:15:43;17.30;99.90
44627;DHT22;30333;52.192;8.834;2022-09-09T07:18:10;17.30;99.90
44627;DHT22;30333;52.192;8.834;2022-09-09T07:23:04;17.40;99.90
44627;DHT22;30333;52.192;8.834;2022-09-09T07:25:31;17.50;99.90
44627;DHT22;30333;52.192;8.834;2022-09-09T07:27:58;17.60;99.90
44627;DHT22;30333;52.192;8.834;2022-09-09T07:30:25;17.60;99.90
44627;DHT22;30333;52.192;8.834;2022-09-09T07:32:55;17.70;99.90
44627;DHT22;30333;52.192;8.834;2022-09-09T07:35:23;17.90;99.90
44627;DHT22;30333;52.192;8.834;2022-09-09T07:37:50;18.00;99.90
44627;DHT22;30333;52.192;8.834;2022-09-09T07:40:17;18.10;99.90
44627;DHT22;30333;52.192;8.834;2022-09-09T07:42:43;18.20;99.90
44627;DHT22;30333;52.192;8.834;2022-09-09T07:45:10;18.20;99.90
44627;DHT22;30333;52.192;8.834;2022-09-09T07:47:37;18.40;99.90
44627;DHT22;30333;52.192;8.834;2022-09-09T07:50:05;18.60;99.90
44627;DHT22;30333;52.192;8.834;2022-09-09T07:52:33;18.70;99.90
44627;DHT22;30333;52.192;8.834;2022-09-09T07:55:00;18.80;99.90
44627;DHT22;30333;52.192;8.834;2022-09-09T07:57:29;18.80;99.90
44627;DHT22;30333;52.192;8.834;2022-09-09T07:59:57;18.90;99.90
44627;DHT22;30333;52.192;8.834;2022-09-09T08:02:24;19.20;99.90
44627;DHT22;30333;52.192;8.834;2022-09-09T08:04:52;19.00;99.90
44627;DHT22;30333;52.192;8.834;2022-09-09T08:07:20;19.00;99.90
44627;DHT22;30333;52.192;8.834;2022-09-09T08:09:48;19.20;99.90
44627;DHT22;30333;52.192;8.834;2022-09-09T08:12:15;19.30;99.90
44627;DHT22;30333;52.192;8.834;2022-09-09T08:14:43;19.30;99.90
44627;DHT22;30333;52.192;8.834;2022-09-09T08:17:09;19.40;99.90
44627;DHT22;30333;52.192;8.834;2022-09-09T08:19:36;19.50;99.90
44627;DHT22;30333;52.192;8.834;2022-09-09T08:22:03;19.60;99.90
44627;DHT22;30333;52.192;8.834;2022-09-09T08:24:31;19.70;99.90
44627;DHT22;30333;52.192;8.834;2022-09-09T08:26:58;19.80;99.90
44627;DHT22;30333;52.192;8.834;2022-09-09T08:29:25;19.60;99.90
44627;DHT22;30333;52.192;8.834;2022-09-09T08:31:53;19.40;99.90
44627;DHT22;30333;52.192;8.834;2022-09-09T08:34:23;19.50;99.90
44627;DHT22;30333;52.192;8.834;2022-09-09T08:36:53;19.60;99.90
44627;DHT22;30333;52.192;8.834;2022-09-09T08:39:21;19.60;99.90
44627;DHT22;30333;52.192;8.834;2022-09-09T08:42:06;19.70;99.90
44627;DHT22;30333;52.192;8.834;2022-09-09T08:44:53;19.70;99.90
44627;DHT22;30333;52.192;8.834;2022-09-09T08:47:32;19.80;99.90
44627;DHT22;30333;52.192;8.834;2022-09-09T08:50:15;20.00;99.90
44627;DHT22;30333;52.192;8.834;2022-09-09T08:52:49;19.90;99.90
44627;DHT22;30333;52.192;8.834;2022-09-09T08:55:25;19.90;99.90
44627;DHT22;30333;52.192;8.834;2022-09-09T08:57:56;20.00;99.90
44627;DHT22;30333;52.192;8.834;2022-09-09T09:00:29;19.80;99.90
44627;DHT22;30333;52.192;8.834;2022-09-09T09:03:07;20.00;99.90
44627;DHT22;30333;52.192;8.834;2022-09-09T09:05:44;20.00;99.90
44627;DHT22;30333;52.192;8.834;2022-09-09T09:08:20;20.10;99.90
44627;DHT22;30333;52.192;8.834;2022-09-09T09:10:54;20.20;99.90
44627;DHT22;30333;52.192;8.834;2022-09-09T09:13:30;20.20;99.90
44627;DHT22;30333;52.192;8.834;2022-09-09T09:16:03;20.10;99.90
44627;DHT22;30333;52.192;8.834;2022-09-09T09:18:33;20.10;99.90
44627;DHT22;30333;52.192;8.834;2022-09-09T09:21:06;20.40;99.90
44627;DHT22;30333;52.192;8.834;2022-09-09T09:23:41;20.40;99.90
44627;DHT22;30333;52.192;8.834;2022-09-09T09:26:10;20.40;99.90
44627;DHT22;30333;52.192;8.834;2022-09-09T09:28:41;20.20;99.90
44627;DHT22;30333;52.192;8.834;2022-09-09T09:31:10;20.20;99.90
44627;DHT22;30333;52.192;8.834;2022-09-09T09:33:45;20.20;99.90
44627;DHT22;30333;52.192;8.834;2022-09-09T09:36:14;20.30;99.90
44627;DHT22;30333;52.192;8.834;2022-09-09T09:38:55;20.20;99.90
44627;DHT22;30333;52.192;8.834;2022-09-09T09:44:23;20.20;99.90
44627;DHT22;30333;52.192;8.834;2022-09-09T09:46:50;20.10;99.90
44627;DHT22;30333;52.192;8.834;2022-09-09T09:49:17;20.30;99.90
44627;DHT22;30333;52.192;8.834;2022-09-09T09:51:44;20.30;99.90
44627;DHT22;30333;52.192;8.834;2022-09-09T09:54:25;20.40;99.90
44627;DHT22;30333;52.192;8.834;2022-09-09T09:56:54;20.60;99.90
44627;DHT22;30333;52.192;8.834;2022-09-09T09:59:32;20.60;99.90
44627;DHT22;30333;52.192;8.834;2022-09-09T10:02:19;20.70;99.90
44627;DHT22;30333;52.192;8.834;2022-09-09T10:04:46;20.80;99.90
44627;DHT22;30333;52.192;8.834;2022-09-09T10:07:18;21.10;99.90
44627;DHT22;30333;52.192;8.834;2022-09-09T10:09:48;21.20;99.90
44627;DHT22;30333;52.192;8.834;2022-09-09T10:12:28;21.30;99.90
44627;DHT22;30333;52.192;8.834;2022-09-09T10:15:04;21.50;99.90
44627;DHT22;30333;52.192;8.834;2022-09-09T10:17:36;21.60;99.90
44627;DHT22;30333;52.192;8.834;2022-09-09T10:20:19;21.50;99.90
44627;DHT22;30333;52.192;8.834;2022-09-09T10:23:02;21.40;99.90
44627;DHT22;30333;52.192;8.834;2022-09-09T10:25:40;21.40;99.90
44627;DHT22;30333;52.192;8.834;2022-09-09T10:31:18;21.20;99.90
44627;DHT22;30333;52.192;8.834;2022-09-09T10:33:49;21.20;99.90
44627;DHT22;30333;52.192;8.834;2022-09-09T10:36:20;21.20;99.90
44627;DHT22;30333;52.192;8.834;2022-09-09T10:38:49;21.10;99.90
44627;DHT22;30333;52.192;8.834;2022-09-09T10:41:24;20.90;99.90
44627;DHT22;30333;52.192;8.834;2022-09-09T10:44:10;20.80;99.90
44627;DHT22;30333;52.192;8.834;2022-09-09T10:46:46;20.70;99.90
44627;DHT22;30333;52.192;8.834;2022-09-09T10:49:24;20.60;99.90
44627;DHT22;30333;52.192;8.834;2022-09-09T10:52:00;20.60;99.90
44627;DHT22;30333;52.192;8.834;2022-09-09T10:54:41;20.60;99.90
44627;DHT22;30333;52.192;8.834;2022-09-09T10:57:17;20.70;99.90
44627;DHT22;30333;52.192;8.834;2022-09-09T10:59:50;20.80;99.90
44627;DHT22;30333;52.192;8.834;2022-09-09T11:02:25;20.80;99.90
44627;DHT22;30333;52.192;8.834;2022-09-09T11:04:55;20.90;99.90
44627;DHT22;30333;52.192;8.834;2022-09-09T11:07:30;21.40;99.90
44627;DHT22;30333;52.192;8.834;2022-09-09T11:10:02;21.30;99.90
44627;DHT22;30333;52.192;8.834;2022-09-09T11:12:31;21.60;99.90
44627;DHT22;30333;52.192;8.834;2022-09-09T11:15:04;21.80;99.90
44627;DHT22;30333;52.192;8.834;2022-09-09T11:17:39;22.00;99.40
44627;DHT22;30333;52.192;8.834;2022-09-09T11:20:11;22.10;99.70
44627;DHT22;30333;52.192;8.834;2022-09-09T11:22:44;22.30;99.20
44627;DHT22;30333;52.192;8.834;2022-09-09T11:25:16;22.50;98.30
44627;DHT22;30333;52.192;8.834;2022-09-09T11:27:54;22.40;96.30
44627;DHT22;30333;52.192;8.834;2022-09-09T11:30:23;22.40;95.90
44627;DHT22;30333;52.192;8.834;2022-09-09T11:36:46;22.30;95.80
44627;DHT22;30333;52.192;8.834;2022-09-09T11:39:35;22.50;97.30
44627;DHT22;30333;52.192;8.834;2022-09-09T11:42:07;22.50;98.30
44627;DHT22;30333;52.192;8.834;2022-09-09T11:44:39;22.50;96.80
44627;DHT22;30333;52.192;8.834;2022-09-09T11:47:19;22.50;96.90
44627;DHT22;30333;52.192;8.834;2022-09-09T11:49:47;22.50;96.40
44627;DHT22;30333;52.192;8.834;2022-09-09T11:52:21;22.50;96.20
44627;DHT22;30333;52.192;8.834;2022-09-09T11:54:49;22.60;97.60
44627;DHT22;30333;52.192;8.834;2022-09-09T11:57:24;22.50;97.00
44627;DHT22;30333;52.192;8.834;2022-09-09T11:59:52;22.50;96.20
44627;DHT22;30333;52.192;8.834;2022-09-09T12:02:22;22.30;96.10
44627;DHT22;30333;52.192;8.834;2022-09-09T12:04:56;22.40;96.80
44627;DHT22;30333;52.192;8.834;2022-09-09T12:07:31;22.90;95.80
44627;DHT22;30333;52.192;8.834;2022-09-09T12:10:04;22.30;94.90
44627;DHT22;30333;52.192;8.834;2022-09-09T12:12:33;22.30;96.70
44627;DHT22;30333;52.192;8.834;2022-09-09T12:15:17;22.30;96.80
44627;DHT22;30333;52.192;8.834;2022-09-09T12:17:45;22.30;96.60
44627;DHT22;30333;52.192;8.834;2022-09-09T12:20:16;22.40;96.70
44627;DHT22;30333;52.192;8.834;2022-09-09T12:22:59;22.40;95.50
44627;DHT22;30333;52.192;8.834;2022-09-09T12:25:33;22.40;96.20
44627;DHT22;30333;52.192;8.834;2022-09-09T12:28:08;22.40;96.30
44627;DHT22;30333;52.192;8.834;2022-09-09T12:30:43;22.30;94.90
44627;DHT22;30333;52.192;8.834;2022-09-09T12:33:17;22.40;96.10
44627;DHT22;30333;52.192;8.834;2022-09-09T12:35:45;22.40;95.80
44627;DHT22;30333;52.192;8.834;2022-09-09T12:38:19;22.50;96.30
44627;DHT22;30333;52.192;8.834;2022-09-09T12:40:54;22.60;96.20
44627;DHT22;30333;52.192;8.834;2022-09-09T12:43:24;22.80;96.50
44627;DHT22;30333;52.192;8.834;2022-09-09T12:45:54;22.70;95.10
44627;DHT22;30333;52.192;8.834;2022-09-09T12:48:32;22.80;96.20
44627;DHT22;30333;52.192;8.834;2022-09-09T12:51:01;22.90;96.00
44627;DHT22;30333;52.192;8.834;2022-09-09T12:53:33;22.70;96.10
44627;DHT22;30333;52.192;8.834;2022-09-09T12:56:03;22.80;95.90
44627;DHT22;30333;52.192;8.834;2022-09-09T12:58:31;22.70;94.70
44627;DHT22;30333;52.192;8.834;2022-09-09T13:01:03;22.80;93.70
44627;DHT22;30333;52.192;8.834;2022-09-09T13:03:32;22.70;95.30
44627;DHT22;30333;52.192;8.834;2022-09-09T13:06:11;22.70;95.40
44627;DHT22;30333;52.192;8.834;2022-09-09T13:08:39;22.70;94.00
44627;DHT22;30333;52.192;8.834;2022-09-09T13:11:09;22.80;95.30
44627;DHT22;30333;52.192;8.834;2022-09-09T13:13:37;22.80;95.10
44627;DHT22;30333;52.192;8.834;2022-09-09T13:16:06;22.60;94.90
44627;DHT22;30333;52.192;8.834;2022-09-09T13:18:36;22.70;93.50
44627;DHT22;30333;52.192;8.834;2022-09-09T13:26:25;22.10;95.50
44627;DHT22;30333;52.192;8.834;2022-09-09T13:28:53;22.10;95.20
44627;DHT22;30333;52.192;8.834;2022-09-09T13:31:23;22.20;93.60
44627;DHT22;30333;52.192;8.834;2022-09-09T13:33:50;22.10;93.30
44627;DHT22;30333;52.192;8.834;2022-09-09T13:36:28;22.20;94.90
44627;DHT22;30333;52.192;8.834;2022-09-09T13:38:57;22.20;94.00
44627;DHT22;30333;52.192;8.834;2022-09-09T13:41:30;22.30;94.50
44627;DHT22;30333;52.192;8.834;2022-09-09T13:43:59;22.30;94.80
44627;DHT22;30333;52.192;8.834;2022-09-09T13:46:31;22.40;95.50
44627;DHT22;30333;52.192;8.834;2022-09-09T13:49:00;22.40;94.40
44627;DHT22;30333;52.192;8.834;2022-09-09T13:51:35;22.50;94.00
44627;DHT22;30333;52.192;8.834;2022-09-09T13:54:04;22.50;94.20
44627;DHT22;30333;52.192;8.834;2022-09-09T13:56:34;22.40;93.00
44627;DHT22;30333;52.192;8.834;2022-09-09T13:59:02;22.30;94.00
44627;DHT22;30333;52.192;8.834;2022-09-09T14:01:29;22.50;94.50
44627;DHT22;30333;52.192;8.834;2022-09-09T14:03:56;22.60;94.40
44627;DHT22;30333;52.192;8.834;2022-09-09T14:06:23;22.70;94.20
44627;DHT22;30333;52.192;8.834;2022-09-09T14:08:51;22.80;94.40
44627;DHT22;30333;52.192;8.834;2022-09-09T14:11:18;23.00;93.80
44627;DHT22;30333;52.192;8.834;2022-09-09T14:13:47;23.20;93.70
44627;DHT22;30333;52.192;8.834;2022-09-09T14:16:13;23.30;93.60
44627;DHT22;30333;52.192;8.834;2022-09-09T14:18:40;23.40;92.70
44627;DHT22;30333;52.192;8.834;2022-09-09T14:21:07;23.50;93.70
44627;DHT22;30333;52.192;8.834;2022-09-09T14:23:35;23.50;93.00
44627;DHT22;30333;52.192;8.834;2022-09-09T14:26:02;23.50;92.60
44627;DHT22;30333;52.192;8.834;2022-09-09T14:28:29;23.50;92.60
44627;DHT22;30333;52.192;8.834;2022-09-09T14:31:17;23.70;92.50
44627;DHT22;30333;52.192;8.834;2022-09-09T14:33:44;23.50;92.70
44627;DHT22;30333;52.192;8.834;2022-09-09T14:36:11;23.50;92.30
44627;DHT22;30333;52.192;8.834;2022-09-09T14:38:39;23.30;93.20
44627;DHT22;30333;52.192;8.834;2022-09-09T14:41:06;23.30;93.40
44627;DHT22;30333;52.192;8.834;2022-09-09T14:43:33;23.20;92.40
44627;DHT22;30333;52.192;8.834;2022-09-09T14:46:04;24.80;94.40
44627;DHT22;30333;52.192;8.834;2022-09-09T14:48:33;23.30;94.10
44627;DHT22;30333;52.192;8.834;2022-09-09T14:51:06;23.30;93.50
44627;DHT22;30333;52.192;8.834;2022-09-09T14:53:33;23.30;93.10
44627;DHT22;30333;52.192;8.834;2022-09-09T14:56:07;23.30;93.40
44627;DHT22;30333;52.192;8.834;2022-09-09T14:58:35;23.30;93.60
44627;DHT22;30333;52.192;8.834;2022-09-09T15:01:04;23.20;92.70
44627;DHT22;30333;52.192;8.834;2022-09-09T15:03:33;23.00;93.00
44627;DHT22;30333;52.192;8.834;2022-09-09T15:06:05;23.20;93.10
44627;DHT22;30333;52.192;8.834;2022-09-09T15:08:32;23.10;93.40
44627;DHT22;30333;52.192;8.834;2022-09-09T15:11:00;23.00;93.30
44627;DHT22;30333;52.192;8.834;2022-09-09T15:13:27;22.90;93.30
44627;DHT22;30333;52.192;8.834;2022-09-09T15:15:54;22.70;93.60
44627;DHT22;30333;52.192;8.834;2022-09-09T15:18:21;22.60;94.00
44627;DHT22;30333;52.192;8.834;2022-09-09T15:20:49;22.70;94.60
44627;DHT22;30333;52.192;8.834;2022-09-09T15:23:16;23.00;95.00
44627;DHT22;30333;52.192;8.834;2022-09-09T15:25:53;22.70;94.70
44627;DHT22;30333;52.192;8.834;2022-09-09T15:28:20;22.70;94.50
44627;DHT22;30333;52.192;8.834;2022-09-09T15:30:48;22.60;92.40
44627;DHT22;30333;52.192;8.834;2022-09-09T15:33:16;22.40;93.70
44627;DHT22;30333;52.192;8.834;2022-09-09T15:35:42;22.40;94.30
44627;DHT22;30333;52.192;8.834;2022-09-09T15:38:11;22.20;95.30
44627;DHT22;30333;52.192;8.834;2022-09-09T15:40:39;22.30;95.30
44627;DHT22;30333;52.192;8.834;2022-09-09T15:43:07;22.40;94.40
44627;DHT22;30333;52.192;8.834;2022-09-09T15:45:34;22.40;94.60
44627;DHT22;30333;52.192;8.834;2022-09-09T15:48:02;22.40;94.00
44627;DHT22;30333;52.192;8.834;2022-09-09T15:50:29;22.40;94.60
44627;DHT22;30333;52.192;8.834;2022-09-09T15:52:59;22.50;94.90
44627;DHT22;30333;52.192;8.834;2022-09-09T15:55:27;22.50;93.70
44627;DHT22;30333;52.192;8.834;2022-09-09T15:57:55;22.60;94.10
44627;DHT22;30333;52.192;8.834;2022-09-09T16:00:21;22.70;94.20
44627;DHT22;30333;52.192;8.834;2022-09-09T16:02:49;22.70;94.50
44627;DHT22;30333;52.192;8.834;2022-09-09T16:05:16;22.80;93.70
44627;DHT22;30333;52.192;8.834;2022-09-09T16:07:43;22.80;92.20
44627;DHT22;30333;52.192;8.834;2022-09-09T16:10:11;23.50;92.40
44627;DHT22;30333;52.192;8.834;2022-09-09T16:12:41;22.10;93.20